Weather at Rybovich Heliport

Public forecast

Using degrees Fahrenheit for public forecast. Weather courtesy of forecast.io.

Closest aviation weather report (METAR) to Rybovich Heliport

Closest report is Palm Beach International Airport, 4.7 nm (8.7 km) SSW.

2024/05/20 04:53 (retrieved 28 minutes ago)

KPBI 200453Z 19004KT 10SM BKN120 BKN170 27/24 A2992 RMK AO2 SLP130 T02720244 403670256

Closest aviation forecast (TAF) to Rybovich Heliport

Forecast is more than 6 hours old.

Closest forecast is Homestead ARB Airport, 77.8 nm (144.1 km) SSW.

2024/05/19 19:00 (retrieved 10 hours ago)

TAF KHST 191900Z 1919/2101 21012KT 9999 SCT035 SCT180 QNH2986INS TEMPO 1920/1923 9000 -SHRA VCTS BKN025CB BECMG 1923/1924 25009KT 9999 NSW SCT025 SCT050 BKN120 QNH2985INS TEMPO 2010/2015 8000 -SHRA VCTS BKN020CB BKN080 BECMG 2014/2015 26010G15KT 9999 VCSH SCT025 BKN050 QNH2984INS BECMG 2022/2023 29009KT 9999 VCSH SCT025 BKN050 QNH2984INS TX35/1919Z TN25/2011Z